sensor_id;sensor_type;location;lat;lon;timestamp;temperature;humidity
22813;DHT22;11573;51.334;3.244;2024-02-15T00:01:26;12.60;99.90
22813;DHT22;11573;51.334;3.244;2024-02-15T00:03:53;12.60;99.90
22813;DHT22;11573;51.334;3.244;2024-02-15T00:06:20;12.60;99.90
22813;DHT22;11573;51.334;3.244;2024-02-15T00:08:47;12.50;99.90
22813;DHT22;11573;51.334;3.244;2024-02-15T00:11:14;12.50;99.90
22813;DHT22;11573;51.334;3.244;2024-02-15T00:13:41;12.60;99.90
22813;DHT22;11573;51.334;3.244;2024-02-15T00:16:14;12.60;99.90
22813;DHT22;11573;51.334;3.244;2024-02-15T00:18:44;12.60;99.90
22813;DHT22;11573;51.334;3.244;2024-02-15T00:21:11;12.60;99.90
22813;DHT22;11573;51.334;3.244;2024-02-15T00:23:41;12.60;99.90
22813;DHT22;11573;51.334;3.244;2024-02-15T00:26:08;12.60;99.90
22813;DHT22;11573;51.334;3.244;2024-02-15T00:28:36;12.50;99.90
22813;DHT22;11573;51.334;3.244;2024-02-15T00:31:03;12.60;99.90
22813;DHT22;11573;51.334;3.244;2024-02-15T00:33:30;12.60;99.90
22813;DHT22;11573;51.334;3.244;2024-02-15T00:35:58;12.70;99.90
22813;DHT22;11573;51.334;3.244;2024-02-15T00:38:25;12.70;99.90
22813;DHT22;11573;51.334;3.244;2024-02-15T00:40:52;12.80;99.90
22813;DHT22;11573;51.334;3.244;2024-02-15T00:43:20;12.80;99.90
22813;DHT22;11573;51.334;3.244;2024-02-15T00:45:46;12.80;99.90
22813;DHT22;11573;51.334;3.244;2024-02-15T00:48:13;12.90;99.90
22813;DHT22;11573;51.334;3.244;2024-02-15T00:50:41;12.90;99.90
22813;DHT22;11573;51.334;3.244;2024-02-15T00:53:08;13.00;99.90
22813;DHT22;11573;51.334;3.244;2024-02-15T00:55:35;13.00;99.90
22813;DHT22;11573;51.334;3.244;2024-02-15T00:58:03;12.90;99.90
22813;DHT22;11573;51.334;3.244;2024-02-15T01:00:30;12.90;99.90
22813;DHT22;11573;51.334;3.244;2024-02-15T01:02:58;13.00;99.90
22813;DHT22;11573;51.334;3.244;2024-02-15T01:05:25;13.00;99.90
22813;DHT22;11573;51.334;3.244;2024-02-15T01:07:52;13.00;99.90
22813;DHT22;11573;51.334;3.244;2024-02-15T01:10:19;13.00;99.90
22813;DHT22;11573;51.334;3.244;2024-02-15T01:12:47;13.00;99.90
22813;DHT22;11573;51.334;3.244;2024-02-15T01:15:14;13.00;99.90
22813;DHT22;11573;51.334;3.244;2024-02-15T01:17:44;13.00;99.90
22813;DHT22;11573;51.334;3.244;2024-02-15T01:20:12;13.00;99.90
22813;DHT22;11573;51.334;3.244;2024-02-15T01:22:39;13.00;99.90
22813;DHT22;11573;51.334;3.244;2024-02-15T01:25:06;13.00;99.90
22813;DHT22;11573;51.334;3.244;2024-02-15T01:27:33;12.90;99.90
22813;DHT22;11573;51.334;3.244;2024-02-15T01:30:00;13.00;99.90
22813;DHT22;11573;51.334;3.244;2024-02-15T01:32:28;13.00;99.90
22813;DHT22;11573;51.334;3.244;2024-02-15T01:34:55;13.00;99.90
22813;DHT22;11573;51.334;3.244;2024-02-15T01:37:22;13.00;99.90
22813;DHT22;11573;51.334;3.244;2024-02-15T01:39:50;13.00;99.90
22813;DHT22;11573;51.334;3.244;2024-02-15T01:42:18;13.00;99.90
22813;DHT22;11573;51.334;3.244;2024-02-15T01:44:45;13.00;99.90
22813;DHT22;11573;51.334;3.244;2024-02-15T01:47:17;12.90;99.90
22813;DHT22;11573;51.334;3.244;2024-02-15T01:49:46;12.90;99.90
22813;DHT22;11573;51.334;3.244;2024-02-15T01:52:17;12.90;99.90
22813;DHT22;11573;51.334;3.244;2024-02-15T01:54:45;12.90;99.90
22813;DHT22;11573;51.334;3.244;2024-02-15T01:57:12;12.90;99.90
22813;DHT22;11573;51.334;3.244;2024-02-15T01:59:39;12.90;99.90
22813;DHT22;11573;51.334;3.244;2024-02-15T02:02:09;12.90;99.90
22813;DHT22;11573;51.334;3.244;2024-02-15T02:04:38;12.90;99.90
22813;DHT22;11573;51.334;3.244;2024-02-15T02:07:06;12.90;99.90
22813;DHT22;11573;51.334;3.244;2024-02-15T02:09:33;12.90;99.90
22813;DHT22;11573;51.334;3.244;2024-02-15T02:12:00;12.90;99.90
22813;DHT22;11573;51.334;3.244;2024-02-15T02:14:27;12.90;99.90
22813;DHT22;11573;51.334;3.244;2024-02-15T02:16:54;12.80;99.90
22813;DHT22;11573;51.334;3.244;2024-02-15T02:19:21;12.80;99.90
22813;DHT22;11573;51.334;3.244;2024-02-15T02:21:49;12.80;99.90
22813;DHT22;11573;51.334;3.244;2024-02-15T02:24:22;12.80;99.90
22813;DHT22;11573;51.334;3.244;2024-02-15T02:26:49;12.80;99.90
22813;DHT22;11573;51.334;3.244;2024-02-15T02:29:16;12.80;99.90
22813;DHT22;11573;51.334;3.244;2024-02-15T02:31:43;12.80;99.90
22813;DHT22;11573;51.334;3.244;2024-02-15T02:34:10;12.80;99.90
22813;DHT22;11573;51.334;3.244;2024-02-15T02:36:38;12.80;99.90
22813;DHT22;11573;51.334;3.244;2024-02-15T02:39:07;12.80;99.90
22813;DHT22;11573;51.334;3.244;2024-02-15T02:41:34;12.90;99.90
22813;DHT22;11573;51.334;3.244;2024-02-15T02:44:01;12.80;99.90
22813;DHT22;11573;51.334;3.244;2024-02-15T02:46:28;12.80;99.90
22813;DHT22;11573;51.334;3.244;2024-02-15T02:48:55;12.80;99.90
22813;DHT22;11573;51.334;3.244;2024-02-15T02:51:22;12.80;99.90
22813;DHT22;11573;51.334;3.244;2024-02-15T02:53:49;12.80;99.90
22813;DHT22;11573;51.334;3.244;2024-02-15T02:56:16;12.80;99.90
22813;DHT22;11573;51.334;3.244;2024-02-15T02:58:45;12.90;99.90
22813;DHT22;11573;51.334;3.244;2024-02-15T03:01:12;12.90;99.90
22813;DHT22;11573;51.334;3.244;2024-02-15T03:03:40;12.80;99.90
22813;DHT22;11573;51.334;3.244;2024-02-15T03:06:07;12.80;99.90
22813;DHT22;11573;51.334;3.244;2024-02-15T03:08:34;12.80;99.90
22813;DHT22;11573;51.334;3.244;2024-02-15T03:11:01;12.80;99.90
22813;DHT22;11573;51.334;3.244;2024-02-15T03:13:29;12.80;99.90
22813;DHT22;11573;51.334;3.244;2024-02-15T03:15:56;12.80;99.90
22813;DHT22;11573;51.334;3.244;2024-02-15T03:18:23;12.80;99.90
22813;DHT22;11573;51.334;3.244;2024-02-15T03:20:51;12.80;99.90
22813;DHT22;11573;51.334;3.244;2024-02-15T03:23:18;12.80;99.90
22813;DHT22;11573;51.334;3.244;2024-02-15T03:25:45;12.80;99.90
22813;DHT22;11573;51.334;3.244;2024-02-15T03:28:12;12.80;99.90
22813;DHT22;11573;51.334;3.244;2024-02-15T03:30:41;12.90;99.90
22813;DHT22;11573;51.334;3.244;2024-02-15T03:33:09;12.80;99.90
22813;DHT22;11573;51.334;3.244;2024-02-15T03:35:36;12.80;99.90
22813;DHT22;11573;51.334;3.244;2024-02-15T03:38:05;12.80;99.90
22813;DHT22;11573;51.334;3.244;2024-02-15T03:40:33;12.80;99.90
22813;DHT22;11573;51.334;3.244;2024-02-15T03:43:00;12.80;99.90
22813;DHT22;11573;51.334;3.244;2024-02-15T03:45:28;12.80;99.90
22813;DHT22;11573;51.334;3.244;2024-02-15T03:47:55;12.80;99.90
22813;DHT22;11573;51.334;3.244;2024-02-15T03:50:25;12.90;99.90
22813;DHT22;11573;51.334;3.244;2024-02-15T03:52:52;12.80;99.90
22813;DHT22;11573;51.334;3.244;2024-02-15T03:55:19;12.90;99.90
22813;DHT22;11573;51.334;3.244;2024-02-15T03:57:49;12.90;99.90
22813;DHT22;11573;51.334;3.244;2024-02-15T04:00:16;12.80;99.90
22813;DHT22;11573;51.334;3.244;2024-02-15T04:02:49;12.80;99.90
22813;DHT22;11573;51.334;3.244;2024-02-15T04:05:16;12.80;99.90
22813;DHT22;11573;51.334;3.244;2024-02-15T04:07:45;12.80;99.90
22813;DHT22;11573;51.334;3.244;2024-02-15T04:10:13;12.80;99.90
22813;DHT22;11573;51.334;3.244;2024-02-15T04:12:40;12.80;99.90
22813;DHT22;11573;51.334;3.244;2024-02-15T04:15:10;12.80;99.90
22813;DHT22;11573;51.334;3.244;2024-02-15T04:17:41;12.80;99.90
22813;DHT22;11573;51.334;3.244;2024-02-15T04:20:11;12.80;99.90
22813;DHT22;11573;51.334;3.244;2024-02-15T04:22:39;12.80;99.90
22813;DHT22;11573;51.334;3.244;2024-02-15T04:25:10;12.80;99.90
22813;DHT22;11573;51.334;3.244;2024-02-15T04:27:38;12.80;99.90
22813;DHT22;11573;51.334;3.244;2024-02-15T04:30:07;12.80;99.90
22813;DHT22;11573;51.334;3.244;2024-02-15T04:32:38;12.80;99.90
22813;DHT22;11573;51.334;3.244;2024-02-15T04:35:05;12.80;99.90
22813;DHT22;11573;51.334;3.244;2024-02-15T04:37:36;12.80;99.90
22813;DHT22;11573;51.334;3.244;2024-02-15T04:40:04;12.80;99.90
22813;DHT22;11573;51.334;3.244;2024-02-15T04:42:37;12.80;99.90
22813;DHT22;11573;51.334;3.244;2024-02-15T04:45:08;12.80;99.90
22813;DHT22;11573;51.334;3.244;2024-02-15T04:47:37;12.80;99.90
22813;DHT22;11573;51.334;3.244;2024-02-15T04:50:05;12.80;99.90
22813;DHT22;11573;51.334;3.244;2024-02-15T04:52:33;12.80;99.90
22813;DHT22;11573;51.334;3.244;2024-02-15T04:55:01;12.80;99.90
22813;DHT22;11573;51.334;3.244;2024-02-15T04:57:31;12.80;99.90
22813;DHT22;11573;51.334;3.244;2024-02-15T05:00:00;12.80;99.90
22813;DHT22;11573;51.334;3.244;2024-02-15T05:02:27;12.80;99.90
22813;DHT22;11573;51.334;3.244;2024-02-15T05:04:54;12.90;99.90
22813;DHT22;11573;51.334;3.244;2024-02-15T05:07:24;12.90;99.90
22813;DHT22;11573;51.334;3.244;2024-02-15T05:09:51;12.80;99.90
22813;DHT22;11573;51.334;3.244;2024-02-15T05:12:22;12.80;99.90
22813;DHT22;11573;51.334;3.244;2024-02-15T05:14:52;12.90;99.90
22813;DHT22;11573;51.334;3.244;2024-02-15T05:17:20;12.90;99.90
22813;DHT22;11573;51.334;3.244;2024-02-15T05:19:49;12.80;99.90
22813;DHT22;11573;51.334;3.244;2024-02-15T05:22:17;12.80;99.90
22813;DHT22;11573;51.334;3.244;2024-02-15T05:24:45;12.80;99.90
22813;DHT22;11573;51.334;3.244;2024-02-15T05:27:12;12.80;99.90
22813;DHT22;11573;51.334;3.244;2024-02-15T05:29:40;12.80;99.90
22813;DHT22;11573;51.334;3.244;2024-02-15T05:32:10;12.80;99.90
22813;DHT22;11573;51.334;3.244;2024-02-15T05:34:38;12.80;99.90
22813;DHT22;11573;51.334;3.244;2024-02-15T05:37:07;12.80;99.90
22813;DHT22;11573;51.334;3.244;2024-02-15T05:39:34;12.90;99.90
22813;DHT22;11573;51.334;3.244;2024-02-15T05:42:01;12.90;99.90
22813;DHT22;11573;51.334;3.244;2024-02-15T05:44:29;12.80;99.90
22813;DHT22;11573;51.334;3.244;2024-02-15T05:46:55;12.80;99.90
22813;DHT22;11573;51.334;3.244;2024-02-15T05:49:23;12.90;99.90
22813;DHT22;11573;51.334;3.244;2024-02-15T05:51:51;12.90;99.90
22813;DHT22;11573;51.334;3.244;2024-02-15T05:54:20;12.90;99.90
22813;DHT22;11573;51.334;3.244;2024-02-15T05:56:50;12.90;99.90
22813;DHT22;11573;51.334;3.244;2024-02-15T05:59:20;12.90;99.90
22813;DHT22;11573;51.334;3.244;2024-02-15T06:01:48;12.90;99.90
22813;DHT22;11573;51.334;3.244;2024-02-15T06:04:15;12.90;99.90
22813;DHT22;11573;51.334;3.244;2024-02-15T06:06:44;12.90;99.90
22813;DHT22;11573;51.334;3.244;2024-02-15T06:09:16;12.90;99.90
22813;DHT22;11573;51.334;3.244;2024-02-15T06:11:44;12.90;99.90
22813;DHT22;11573;51.334;3.244;2024-02-15T06:14:12;12.80;99.90
22813;DHT22;11573;51.334;3.244;2024-02-15T06:16:45;12.90;99.90
22813;DHT22;11573;51.334;3.244;2024-02-15T06:19:13;12.90;99.90
22813;DHT22;11573;51.334;3.244;2024-02-15T06:21:41;12.90;99.90
22813;DHT22;11573;51.334;3.244;2024-02-15T06:24:09;12.80;99.90
22813;DHT22;11573;51.334;3.244;2024-02-15T06:26:37;12.80;99.90
22813;DHT22;11573;51.334;3.244;2024-02-15T06:29:04;12.80;99.90
22813;DHT22;11573;51.334;3.244;2024-02-15T06:31:50;12.80;99.90
22813;DHT22;11573;51.334;3.244;2024-02-15T06:34:35;12.70;99.90
22813;DHT22;11573;51.334;3.244;2024-02-15T06:37:37;12.70;99.90
22813;DHT22;11573;51.334;3.244;2024-02-15T06:40:23;12.70;99.90
22813;DHT22;11573;51.334;3.244;2024-02-15T06:42:51;12.70;99.90
22813;DHT22;11573;51.334;3.244;2024-02-15T06:45:18;12.70;99.90
22813;DHT22;11573;51.334;3.244;2024-02-15T06:47:45;12.70;99.90
22813;DHT22;11573;51.334;3.244;2024-02-15T06:50:13;12.70;99.90
22813;DHT22;11573;51.334;3.244;2024-02-15T06:52:43;12.60;99.90
22813;DHT22;11573;51.334;3.244;2024-02-15T06:55:11;12.60;99.90
22813;DHT22;11573;51.334;3.244;2024-02-15T06:57:39;12.60;99.90
22813;DHT22;11573;51.334;3.244;2024-02-15T07:00:10;12.60;99.90
22813;DHT22;11573;51.334;3.244;2024-02-15T07:02:42;12.60;99.90
22813;DHT22;11573;51.334;3.244;2024-02-15T07:05:11;12.60;99.90
22813;DHT22;11573;51.334;3.244;2024-02-15T07:07:38;12.60;99.90
22813;DHT22;11573;51.334;3.244;2024-02-15T07:10:06;12.60;99.90
22813;DHT22;11573;51.334;3.244;2024-02-15T07:12:33;12.60;99.90
22813;DHT22;11573;51.334;3.244;2024-02-15T07:15:01;12.60;99.90
22813;DHT22;11573;51.334;3.244;2024-02-15T07:17:30;12.60;99.90
22813;DHT22;11573;51.334;3.244;2024-02-15T07:19:57;12.60;99.90
22813;DHT22;11573;51.334;3.244;2024-02-15T07:22:24;12.60;99.90
22813;DHT22;11573;51.334;3.244;2024-02-15T07:24:51;12.70;99.90
22813;DHT22;11573;51.334;3.244;2024-02-15T07:27:19;12.60;99.90
22813;DHT22;11573;51.334;3.244;2024-02-15T07:29:46;12.70;99.90
22813;DHT22;11573;51.334;3.244;2024-02-15T07:32:13;12.70;99.90
22813;DHT22;11573;51.334;3.244;2024-02-15T07:34:40;12.70;99.90
22813;DHT22;11573;51.334;3.244;2024-02-15T07:37:08;12.70;99.90
22813;DHT22;11573;51.334;3.244;2024-02-15T07:39:36;12.70;99.90
22813;DHT22;11573;51.334;3.244;2024-02-15T07:42:03;12.80;99.90
22813;DHT22;11573;51.334;3.244;2024-02-15T07:44:35;12.80;99.90
22813;DHT22;11573;51.334;3.244;2024-02-15T07:47:03;12.80;99.90
22813;DHT22;11573;51.334;3.244;2024-02-15T07:49:31;12.90;99.90
22813;DHT22;11573;51.334;3.244;2024-02-15T07:52:00;12.90;99.90
22813;DHT22;11573;51.334;3.244;2024-02-15T07:54:27;12.90;99.90
22813;DHT22;11573;51.334;3.244;2024-02-15T07:56:56;12.90;99.90
22813;DHT22;11573;51.334;3.244;2024-02-15T07:59:25;13.00;99.90
22813;DHT22;11573;51.334;3.244;2024-02-15T08:01:52;13.00;99.90
22813;DHT22;11573;51.334;3.244;2024-02-15T08:04:19;13.10;99.90
22813;DHT22;11573;51.334;3.244;2024-02-15T08:06:50;13.10;99.90
22813;DHT22;11573;51.334;3.244;2024-02-15T08:09:20;13.20;99.90
22813;DHT22;11573;51.334;3.244;2024-02-15T08:11:51;13.20;99.90
22813;DHT22;11573;51.334;3.244;2024-02-15T08:14:18;13.20;99.90
22813;DHT22;11573;51.334;3.244;2024-02-15T08:16:47;13.30;99.90
22813;DHT22;11573;51.334;3.244;2024-02-15T08:19:14;13.30;99.90
22813;DHT22;11573;51.334;3.244;2024-02-15T08:21:42;13.30;99.90
22813;DHT22;11573;51.334;3.244;2024-02-15T08:24:13;13.40;99.90
22813;DHT22;11573;51.334;3.244;2024-02-15T08:26:40;13.40;99.90
22813;DHT22;11573;51.334;3.244;2024-02-15T08:29:09;13.40;99.90
22813;DHT22;11573;51.334;3.244;2024-02-15T08:31:36;13.40;99.90
22813;DHT22;11573;51.334;3.244;2024-02-15T08:34:03;13.50;99.90
22813;DHT22;11573;51.334;3.244;2024-02-15T08:36:37;13.40;99.90
22813;DHT22;11573;51.334;3.244;2024-02-15T08:39:06;13.50;99.90
22813;DHT22;11573;51.334;3.244;2024-02-15T08:41:35;13.50;99.90
22813;DHT22;11573;51.334;3.244;2024-02-15T08:44:02;13.50;99.90
22813;DHT22;11573;51.334;3.244;2024-02-15T08:46:33;13.50;99.90
22813;DHT22;11573;51.334;3.244;2024-02-15T08:49:00;13.50;99.90
22813;DHT22;11573;51.334;3.244;2024-02-15T08:51:28;13.50;99.90
22813;DHT22;11573;51.334;3.244;2024-02-15T08:53:57;13.60;99.90
22813;DHT22;11573;51.334;3.244;2024-02-15T08:56:24;13.60;99.90
22813;DHT22;11573;51.334;3.244;2024-02-15T08:58:51;13.60;99.90
22813;DHT22;11573;51.334;3.244;2024-02-15T09:01:18;13.70;99.90
22813;DHT22;11573;51.334;3.244;2024-02-15T09:03:45;13.70;99.90
22813;DHT22;11573;51.334;3.244;2024-02-15T09:06:13;13.70;99.90
22813;DHT22;11573;51.334;3.244;2024-02-15T09:08:40;13.80;99.90
22813;DHT22;11573;51.334;3.244;2024-02-15T09:11:07;13.80;99.90
22813;DHT22;11573;51.334;3.244;2024-02-15T09:13:39;13.90;99.90
22813;DHT22;11573;51.334;3.244;2024-02-15T09:16:06;14.00;99.90
22813;DHT22;11573;51.334;3.244;2024-02-15T09:18:33;14.10;99.90
22813;DHT22;11573;51.334;3.244;2024-02-15T09:21:00;14.10;99.90
22813;DHT22;11573;51.334;3.244;2024-02-15T09:23:27;14.20;99.90
22813;DHT22;11573;51.334;3.244;2024-02-15T09:25:54;14.30;99.90
22813;DHT22;11573;51.334;3.244;2024-02-15T09:28:21;14.30;99.90
22813;DHT22;11573;51.334;3.244;2024-02-15T09:30:49;14.30;99.90
22813;DHT22;11573;51.334;3.244;2024-02-15T09:33:20;14.30;99.90
22813;DHT22;11573;51.334;3.244;2024-02-15T09:35:47;14.30;99.90
22813;DHT22;11573;51.334;3.244;2024-02-15T09:38:15;14.40;99.90
22813;DHT22;11573;51.334;3.244;2024-02-15T09:40:44;14.40;99.90
22813;DHT22;11573;51.334;3.244;2024-02-15T09:43:11;14.50;99.90
22813;DHT22;11573;51.334;3.244;2024-02-15T09:45:42;14.50;99.90
22813;DHT22;11573;51.334;3.244;2024-02-15T09:48:10;14.50;99.90
22813;DHT22;11573;51.334;3.244;2024-02-15T09:50:41;14.60;99.90
22813;DHT22;11573;51.334;3.244;2024-02-15T09:53:14;14.70;99.90
22813;DHT22;11573;51.334;3.244;2024-02-15T09:55:42;14.80;99.90
22813;DHT22;11573;51.334;3.244;2024-02-15T09:58:10;14.90;99.90
22813;DHT22;11573;51.334;3.244;2024-02-15T10:00:39;15.00;99.90
22813;DHT22;11573;51.334;3.244;2024-02-15T10:03:07;15.10;99.90
22813;DHT22;11573;51.334;3.244;2024-02-15T10:05:35;15.30;99.90
22813;DHT22;11573;51.334;3.244;2024-02-15T10:08:02;15.40;99.90
22813;DHT22;11573;51.334;3.244;2024-02-15T10:10:30;15.50;99.90
22813;DHT22;11573;51.334;3.244;2024-02-15T10:13:00;15.50;99.90
22813;DHT22;11573;51.334;3.244;2024-02-15T10:15:33;15.60;99.90
22813;DHT22;11573;51.334;3.244;2024-02-15T10:18:06;15.70;99.90
22813;DHT22;11573;51.334;3.244;2024-02-15T10:20:36;15.80;99.90
22813;DHT22;11573;51.334;3.244;2024-02-15T10:23:10;15.80;99.90
22813;DHT22;11573;51.334;3.244;2024-02-15T10:25:39;15.80;99.90
22813;DHT22;11573;51.334;3.244;2024-02-15T10:28:11;15.90;99.90
22813;DHT22;11573;51.334;3.244;2024-02-15T10:30:40;15.90;99.90
22813;DHT22;11573;51.334;3.244;2024-02-15T10:33:32;16.00;99.90
22813;DHT22;11573;51.334;3.244;2024-02-15T10:36:09;16.00;99.90
22813;DHT22;11573;51.334;3.244;2024-02-15T10:38:38;16.00;99.90
22813;DHT22;11573;51.334;3.244;2024-02-15T10:41:06;15.90;99.90
22813;DHT22;11573;51.334;3.244;2024-02-15T10:43:34;15.90;99.90
22813;DHT22;11573;51.334;3.244;2024-02-15T10:46:02;16.10;99.90
22813;DHT22;11573;51.334;3.244;2024-02-15T10:48:29;16.10;99.90
22813;DHT22;11573;51.334;3.244;2024-02-15T10:50:59;16.20;99.90
22813;DHT22;11573;51.334;3.244;2024-02-15T10:53:28;16.30;99.90
22813;DHT22;11573;51.334;3.244;2024-02-15T10:56:15;16.30;99.90
22813;DHT22;11573;51.334;3.244;2024-02-15T10:58:47;16.40;99.90
22813;DHT22;11573;51.334;3.244;2024-02-15T11:01:21;16.40;99.90
22813;DHT22;11573;51.334;3.244;2024-02-15T11:03:52;16.50;99.90
22813;DHT22;11573;51.334;3.244;2024-02-15T11:06:30;16.60;99.90
22813;DHT22;11573;51.334;3.244;2024-02-15T11:09:00;16.70;99.90
22813;DHT22;11573;51.334;3.244;2024-02-15T11:11:29;16.80;99.90
22813;DHT22;11573;51.334;3.244;2024-02-15T11:14:31;16.80;99.90
22813;DHT22;11573;51.334;3.244;2024-02-15T11:17:00;16.80;99.90
22813;DHT22;11573;51.334;3.244;2024-02-15T11:19:39;16.80;99.90
22813;DHT22;11573;51.334;3.244;2024-02-15T11:22:11;16.90;99.90
22813;DHT22;11573;51.334;3.244;2024-02-15T11:24:48;17.00;99.90
22813;DHT22;11573;51.334;3.244;2024-02-15T11:27:29;17.20;99.90
22813;DHT22;11573;51.334;3.244;2024-02-15T11:30:00;17.50;99.90
22813;DHT22;11573;51.334;3.244;2024-02-15T11:32:44;17.50;99.90
22813;DHT22;11573;51.334;3.244;2024-02-15T11:35:18;17.70;99.90
22813;DHT22;11573;51.334;3.244;2024-02-15T11:37:51;17.90;99.90
22813;DHT22;11573;51.334;3.244;2024-02-15T11:42:58;18.00;99.90
22813;DHT22;11573;51.334;3.244;2024-02-15T11:45:27;18.20;99.90
22813;DHT22;11573;51.334;3.244;2024-02-15T11:48:01;18.10;99.90
22813;DHT22;11573;51.334;3.244;2024-02-15T11:50:34;18.10;99.90
22813;DHT22;11573;51.334;3.244;2024-02-15T11:53:04;18.20;99.90
22813;DHT22;11573;51.334;3.244;2024-02-15T11:55:40;18.20;99.90
22813;DHT22;11573;51.334;3.244;2024-02-15T11:58:09;18.30;99.90
22813;DHT22;11573;51.334;3.244;2024-02-15T12:00:38;18.30;99.90
22813;DHT22;11573;51.334;3.244;2024-02-15T12:03:25;18.30;99.90
22813;DHT22;11573;51.334;3.244;2024-02-15T12:06:27;18.50;99.90
22813;DHT22;11573;51.334;3.244;2024-02-15T12:09:18;18.40;99.90
22813;DHT22;11573;51.334;3.244;2024-02-15T12:12:05;18.40;99.90
22813;DHT22;11573;51.334;3.244;2024-02-15T12:15:00;18.50;99.90
22813;DHT22;11573;51.334;3.244;2024-02-15T12:17:46;18.60;99.90
22813;DHT22;11573;51.334;3.244;2024-02-15T12:20:32;18.60;99.90
22813;DHT22;11573;51.334;3.244;2024-02-15T12:23:01;18.70;99.90
22813;DHT22;11573;51.334;3.244;2024-02-15T12:25:28;18.70;99.90
22813;DHT22;11573;51.334;3.244;2024-02-15T12:27:58;18.60;99.90
22813;DHT22;11573;51.334;3.244;2024-02-15T12:30:32;18.40;99.90
22813;DHT22;11573;51.334;3.244;2024-02-15T12:33:10;18.30;99.90
22813;DHT22;11573;51.334;3.244;2024-02-15T12:35:46;18.30;99.90
22813;DHT22;11573;51.334;3.244;2024-02-15T12:38:14;18.30;99.90
22813;DHT22;11573;51.334;3.244;2024-02-15T12:40:45;18.30;99.90
22813;DHT22;11573;51.334;3.244;2024-02-15T12:43:15;18.10;99.90
22813;DHT22;11573;51.334;3.244;2024-02-15T12:45:42;18.10;99.90
22813;DHT22;11573;51.334;3.244;2024-02-15T12:48:09;18.10;99.90
22813;DHT22;11573;51.334;3.244;2024-02-15T12:50:38;18.20;99.90
22813;DHT22;11573;51.334;3.244;2024-02-15T12:53:05;18.20;99.90
22813;DHT22;11573;51.334;3.244;2024-02-15T12:55:37;18.30;99.90
22813;DHT22;11573;51.334;3.244;2024-02-15T12:58:14;18.30;99.90
22813;DHT22;11573;51.334;3.244;2024-02-15T13:00:43;18.30;99.90
22813;DHT22;11573;51.334;3.244;2024-02-15T13:03:12;18.40;99.90
22813;DHT22;11573;51.334;3.244;2024-02-15T13:05:41;18.60;99.90
22813;DHT22;11573;51.334;3.244;2024-02-15T13:08:08;18.40;99.90
22813;DHT22;11573;51.334;3.244;2024-02-15T13:10:41;18.30;99.90
22813;DHT22;11573;51.334;3.244;2024-02-15T13:13:09;18.20;99.90
22813;DHT22;11573;51.334;3.244;2024-02-15T13:15:37;18.10;99.90
22813;DHT22;11573;51.334;3.244;2024-02-15T13:18:05;18.10;99.90
22813;DHT22;11573;51.334;3.244;2024-02-15T13:20:33;18.10;99.90
22813;DHT22;11573;51.334;3.244;2024-02-15T13:25:36;18.20;99.90
22813;DHT22;11573;51.334;3.244;2024-02-15T13:28:04;18.30;99.90
22813;DHT22;11573;51.334;3.244;2024-02-15T13:30:32;18.40;99.90
22813;DHT22;11573;51.334;3.244;2024-02-15T13:32:59;18.30;99.90
22813;DHT22;11573;51.334;3.244;2024-02-15T13:35:28;18.20;99.90
22813;DHT22;11573;51.334;3.244;2024-02-15T13:37:56;18.20;99.90
22813;DHT22;11573;51.334;3.244;2024-02-15T13:40:27;18.10;99.90
22813;DHT22;11573;51.334;3.244;2024-02-15T13:42:57;18.10;99.90
22813;DHT22;11573;51.334;3.244;2024-02-15T13:45:30;18.00;99.90
22813;DHT22;11573;51.334;3.244;2024-02-15T13:48:01;18.00;99.90
22813;DHT22;11573;51.334;3.244;2024-02-15T13:50:29;18.10;99.90
22813;DHT22;11573;51.334;3.244;2024-02-15T13:52:57;18.00;99.90
22813;DHT22;11573;51.334;3.244;2024-02-15T13:55:26;18.00;99.90
22813;DHT22;11573;51.334;3.244;2024-02-15T13:57:53;18.00;99.90
22813;DHT22;11573;51.334;3.244;2024-02-15T14:00:23;17.90;99.90
22813;DHT22;11573;51.334;3.244;2024-02-15T14:02:58;17.80;99.90
22813;DHT22;11573;51.334;3.244;2024-02-15T14:05:29;17.80;99.90
22813;DHT22;11573;51.334;3.244;2024-02-15T14:07:58;17.70;99.90
22813;DHT22;11573;51.334;3.244;2024-02-15T14:10:30;17.80;99.90
22813;DHT22;11573;51.334;3.244;2024-02-15T14:12:57;17.80;99.90
22813;DHT22;11573;51.334;3.244;2024-02-15T14:15:31;17.90;99.90
22813;DHT22;11573;51.334;3.244;2024-02-15T14:18:01;18.00;99.90
22813;DHT22;11573;51.334;3.244;2024-02-15T14:20:28;18.10;99.90
22813;DHT22;11573;51.334;3.244;2024-02-15T14:22:55;18.10;99.90
22813;DHT22;11573;51.334;3.244;2024-02-15T14:25:24;18.10;99.90
22813;DHT22;11573;51.334;3.244;2024-02-15T14:27:54;18.10;99.90
22813;DHT22;11573;51.334;3.244;2024-02-15T14:30:22;18.00;99.90
22813;DHT22;11573;51.334;3.244;2024-02-15T14:33:08;17.90;99.90
22813;DHT22;11573;51.334;3.244;2024-02-15T14:35:46;17.90;99.90
22813;DHT22;11573;51.334;3.244;2024-02-15T14:38:13;17.90;99.90
22813;DHT22;11573;51.334;3.244;2024-02-15T14:40:45;17.80;99.90
22813;DHT22;11573;51.334;3.244;2024-02-15T14:43:25;17.70;99.90
22813;DHT22;11573;51.334;3.244;2024-02-15T14:45:55;17.60;99.90
22813;DHT22;11573;51.334;3.244;2024-02-15T14:48:28;17.60;99.90
22813;DHT22;11573;51.334;3.244;2024-02-15T14:50:57;17.50;99.90
22813;DHT22;11573;51.334;3.244;2024-02-15T14:53:24;17.50;99.90
22813;DHT22;11573;51.334;3.244;2024-02-15T14:55:51;17.40;99.90
22813;DHT22;11573;51.334;3.244;2024-02-15T14:58:20;17.30;99.90
22813;DHT22;11573;51.334;3.244;2024-02-15T15:00:49;17.20;99.90
22813;DHT22;11573;51.334;3.244;2024-02-15T15:03:17;17.00;99.90
22813;DHT22;11573;51.334;3.244;2024-02-15T15:05:47;16.90;99.90
22813;DHT22;11573;51.334;3.244;2024-02-15T15:08:33;16.90;99.90
22813;DHT22;11573;51.334;3.244;2024-02-15T15:11:19;16.80;99.90
22813;DHT22;11573;51.334;3.244;2024-02-15T15:14:04;16.60;99.90
22813;DHT22;11573;51.334;3.244;2024-02-15T15:16:33;16.60;99.90
22813;DHT22;11573;51.334;3.244;2024-02-15T15:19:01;16.60;99.90
22813;DHT22;11573;51.334;3.244;2024-02-15T15:21:28;16.70;99.90
22813;DHT22;11573;51.334;3.244;2024-02-15T15:23:56;16.70;99.90
22813;DHT22;11573;51.334;3.244;2024-02-15T15:26:23;16.70;99.90
22813;DHT22;11573;51.334;3.244;2024-02-15T15:28:50;16.70;99.90
22813;DHT22;11573;51.334;3.244;2024-02-15T15:31:18;16.70;99.90
22813;DHT22;11573;51.334;3.244;2024-02-15T15:33:48;16.70;99.90
22813;DHT22;11573;51.334;3.244;2024-02-15T15:36:16;16.70;99.90
22813;DHT22;11573;51.334;3.244;2024-02-15T15:38:47;16.70;99.90
22813;DHT22;11573;51.334;3.244;2024-02-15T15:41:15;16.80;99.90
22813;DHT22;11573;51.334;3.244;2024-02-15T15:43:42;16.80;99.90
22813;DHT22;11573;51.334;3.244;2024-02-15T15:46:13;16.80;99.90
22813;DHT22;11573;51.334;3.244;2024-02-15T15:48:41;16.70;99.90
22813;DHT22;11573;51.334;3.244;2024-02-15T15:51:09;16.60;99.90